Irving, TX (75014)

2:02 AM CST on February 12, 2016 (GMT -0600)
Toler Lane, Irving, Texas USA | | Change Station
CLOSE
Current Station
Personal Weather Station
Location: Irving, TX
Elevation: 551 ft
Nearby Weather Stations
Active Advisory: Flood Warning Active Notice: Record Report

Elev 551 ft 32.84 °N, 96.96 °W | Updated 1 second ago

Clear
Clear
52.5 °F
Feels Like 52.5 °F
N
3.5
Wind Variable Wind from North
Gusts 3.5 mph

Today
High -- | Low -- °F
--% Chance of Precip.
Yesterday
High -- | Low -- °F
Precip. -- in
Pressure 30.12 in
Visibility 10.0 miles
Clouds Clear
Dew Point 39 °F
Humidity 59%
Rainfall 0.00 in
Snow Depth Not available.
7:14 AM 6:10 PM
Waxing Crescent, 18% visible
METAR KDFW 120753Z 36007KT 10SM CLR 09/01 A3013 RMK AO2 SLP199 T00940011
Pressure 30.12 in
Visibility 10.0 miles
Clouds Clear
Dew Point 39 °F
Humidity 59%
Rainfall 0.00 in
Snow Depth Not available.
7:14 AM 6:10 PM
Waxing Crescent, 18% visible
METAR KDFW 120753Z 36007KT 10SM CLR 09/01 A3013 RMK AO2 SLP199 T00940011

10-Day Weather Forecast

Almanac

Astronomy

Feb. 12, 2016 Rise Set
Actual Time
Civil Twilight
Nautical Twilight
Astronomical Twilight
Moon
Length of Visible Light
Length of Day
Tomorrow will be .
, % of the Moon is Illuminated

Today's Extremes

State Highs State Lows

Community

WunderPhotos

Upload Photos

1,892,278 photos uploaded!

WunderBlog® & News

Nearby

Air Quality

  Air Quality AQ Index Pollutant
Not available.

Snow Depth

Station Depth Elevation

Earthquake Activity

City Distance Mag. Time & Date
Minimum magnitude displayed is 2.5.

Coastal Water Temperatures

Place Temperature

Stations

Nearby Weather Stations

Station Location Temp. Windchill Dew Point Humidity Wind Precip. Elev Updated Type
                   

Watches & Warnings

Flood Warning
Issued: 6:35 PM CST Feb. 11, 2016 – National Weather Service

The Flood Warning continues for
the Elm Fork Trinity River near Carrollton.
* At 0615 PM Thursday the stage was 8.33 feet.
* Flood stage is 8 feet.
* Minor flooding is occurring and minor flooding is forecast.
* Forecast... the river will continue near 8.4 feet for the next few
days.


Lat... Lon 3300 9700 3287 9699 3287 9687 3300 9688